Time;durP1;ratioP1;P1;durP2;ratioP2;P2;SDS_P1;SDS_P2;PMS_P1;PMS_P2;Temp;Humidity;BMP_temperature;BMP_pressure;BME280_temperature;BME280_humidity;BME280_pressure;Samples;Min_cycle;Max_cycle;Signal;HPM_P1;HPM_P2
2023/09/12 00:00:06;;;;;;;11.40;6.40;;;;;;;17.72;100.00;99034.17;109623;1250;59619;-70
2023/09/12 00:02:38;;;;;;;14.00;6.90;;;;;;;17.71;100.00;99034.88;109621;1253;66691;-68
2023/09/12 00:05:05;;;;;;;10.10;6.70;;;;;;;17.70;100.00;99036.71;109633;1250;71163;-68
2023/09/12 00:07:31;;;;;;;13.50;6.40;;;;;;;17.69;100.00;99034.54;109613;1250;60616;-70
2023/09/12 00:09:58;;;;;;;11.00;6.20;;;;;;;17.69;100.00;99034.34;109626;1250;59765;-67
2023/09/12 00:12:24;;;;;;;17.30;6.70;;;;;;;17.67;100.00;99031.19;109696;1250;59995;-68
2023/09/12 00:14:54;;;;;;;9.40;6.80;;;;;;;17.64;100.00;99034.15;109678;1250;67860;-68
2023/09/12 00:17:20;;;;;;;13.30;6.90;;;;;;;17.62;100.00;99032.83;109651;1250;72443;-67
2023/09/12 00:19:47;;;;;;;8.90;6.10;;;;;;;17.60;100.00;99035.71;109671;1250;60063;-69
2023/09/12 00:22:13;;;;;;;12.40;6.40;;;;;;;17.58;100.00;99033.55;109668;1250;60210;-67
2023/09/12 00:24:40;;;;;;;17.60;6.30;;;;;;;17.56;100.00;99037.85;109663;1250;75412;-67
2023/09/12 00:27:07;;;;;;;13.90;6.90;;;;;;;17.51;100.00;99041.95;109679;1250;67588;-69
2023/09/12 00:29:34;;;;;;;15.00;7.00;;;;;;;17.47;100.00;99040.53;109540;1250;70806;-67
2023/09/12 00:32:00;;;;;;;12.70;6.50;;;;;;;17.45;100.00;99040.89;109669;1250;60090;-70
2023/09/12 00:34:27;;;;;;;15.30;7.10;;;;;;;17.43;100.00;99045.51;109649;1251;59755;-69
2023/09/12 00:36:54;;;;;;;16.20;7.10;;;;;;;17.41;100.00;99044.17;109620;1251;75337;-68
2023/09/12 00:39:20;;;;;;;16.60;7.20;;;;;;;17.40;100.00;99044.50;109589;1250;68230;-69
2023/09/12 00:41:47;;;;;;;12.80;7.10;;;;;;;17.38;100.00;99044.27;109653;1250;71560;-69
2023/09/12 00:44:13;;;;;;;11.80;6.50;;;;;;;17.37;100.00;99045.16;109649;1250;59880;-68
2023/09/12 00:46:40;;;;;;;19.60;7.10;;;;;;;17.36;100.00;99048.73;109626;1250;59784;-67
2023/09/12 00:49:07;;;;;;;10.70;6.50;;;;;;;17.34;100.00;99049.87;109523;1250;73674;-67
2023/09/12 00:51:33;;;;;;;15.00;7.30;;;;;;;17.32;100.00;99049.80;109469;1250;66793;-67
2023/09/12 00:54:00;;;;;;;9.80;6.30;;;;;;;17.30;100.00;99048.80;109498;1250;73308;-66
2023/09/12 00:56:27;;;;;;;10.10;7.00;;;;;;;17.28;100.00;99050.52;109522;1250;59804;-69
2023/09/12 00:58:53;;;;;;;16.00;7.50;;;;;;;17.25;100.00;99048.96;109688;1250;59774;-68
2023/09/12 01:01:20;;;;;;;14.40;7.10;;;;;;;17.23;100.00;99052.17;109671;1250;75367;-67
2023/09/12 01:03:46;;;;;;;9.30;6.40;;;;;;;17.21;100.00;99052.73;109671;1250;66706;-68
2023/09/12 01:06:14;;;;;;;10.50;6.70;;;;;;;17.19;100.00;99055.77;109481;1250;72722;-68
2023/09/12 01:08:42;;;;;;;13.40;7.10;;;;;;;17.17;100.00;99057.70;109513;1250;60548;-69
2023/09/12 01:11:09;;;;;;;11.60;7.50;;;;;;;17.15;100.00;99056.77;109556;1250;59997;-67
2023/09/12 01:13:36;;;;;;;14.20;7.70;;;;;;;17.13;100.00;99054.46;109400;1250;75517;-67
2023/09/12 01:16:03;;;;;;;14.30;7.30;;;;;;;17.12;100.00;99053.95;109623;1250;66401;-67
2023/09/12 01:18:31;;;;;;;12.10;7.20;;;;;;;17.10;100.00;99053.99;109638;1250;72514;-70
2023/09/12 01:21:27;;;;;;;13.70;7.50;;;;;;;17.08;100.00;99057.70;109642;1250;59753;-69
2023/09/12 01:24:35;;;;;;;16.10;7.50;;;;;;;17.06;100.00;99051.94;109603;1250;60194;-68
2023/09/12 01:27:21;;;;;;;12.30;7.30;;;;;;;17.04;100.00;99053.28;109596;1249;74229;-69
2023/09/12 01:29:50;;;;;;;16.50;7.10;;;;;;;17.02;100.00;99055.37;109564;1250;68089;-67
2023/09/12 01:32:17;;;;;;;12.10;7.20;;;;;;;17.01;100.00;99057.56;109631;1250;72454;-68
2023/09/12 01:34:44;;;;;;;11.90;7.20;;;;;;;17.00;100.00;99058.82;109472;1250;60154;-67
2023/09/12 01:37:10;;;;;;;16.40;8.50;;;;;;;16.98;100.00;99060.15;109713;1250;59691;-64
2023/09/12 01:39:37;;;;;;;14.00;7.40;;;;;;;16.95;100.00;99062.66;109734;1250;73641;-68
2023/09/12 01:42:04;;;;;;;18.20;8.10;;;;;;;16.93;100.00;99059.95;109495;1251;67782;-67
2023/09/12 01:44:30;;;;;;;14.90;8.20;;;;;;;16.91;100.00;99061.55;109517;1250;72912;-69
2023/09/12 01:46:58;;;;;;;14.90;6.80;;;;;;;16.89;100.00;99063.48;109516;1250;59729;-65
2023/09/12 01:49:25;;;;;;;15.80;7.50;;;;;;;16.87;100.00;99061.91;109687;1250;59709;-67
2023/09/12 01:51:52;;;;;;;10.30;7.30;;;;;;;16.85;100.00;99058.38;109612;1251;74018;-68
2023/09/12 01:54:19;;;;;;;16.10;7.10;;;;;;;16.84;100.00;99059.02;109585;1250;67695;-66
2023/09/12 01:56:46;;;;;;;12.00;6.90;;;;;;;16.82;100.00;99060.02;109661;1250;72556;-67
2023/09/12 01:59:12;;;;;;;13.70;7.50;;;;;;;16.80;100.00;99058.67;109497;1250;59765;-68
2023/09/12 02:01:39;;;;;;;11.50;7.50;;;;;;;16.77;100.00;99061.34;109514;1257;59821;-67
2023/09/12 02:04:08;;;;;;;12.80;7.30;;;;;;;16.76;100.00;99062.15;109623;1250;74627;-65
2023/09/12 02:06:35;;;;;;;11.60;7.00;;;;;;;16.73;100.00;99055.88;109690;1250;68383;-66
2023/09/12 02:09:02;;;;;;;11.60;7.70;;;;;;;16.73;100.00;99057.58;109663;1250;72402;-69
2023/09/12 02:11:29;;;;;;;13.30;7.60;;;;;;;16.72;100.00;99061.31;109586;1250;60290;-68
2023/09/12 02:13:55;;;;;;;18.30;7.60;;;;;;;16.71;100.00;99058.23;109718;1250;59803;-66
2023/09/12 02:16:22;;;;;;;16.60;7.20;;;;;;;16.70;100.00;99059.75;109685;1250;73985;-65
2023/09/12 02:18:48;;;;;;;11.60;7.40;;;;;;;16.70;100.00;99061.77;109612;1250;67857;-65
2023/09/12 02:21:18;;;;;;;10.00;7.50;;;;;;;16.68;100.00;99062.88;109588;1250;72544;-68
2023/09/12 02:23:45;;;;;;;20.20;9.00;;;;;;;16.66;100.00;99062.42;109634;1250;59744;-66
2023/09/12 02:26:12;;;;;;;18.60;7.10;;;;;;;16.65;100.00;99059.00;109568;1250;60084;-68
2023/09/12 02:28:38;;;;;;;17.70;8.10;;;;;;;16.64;100.00;99064.91;109684;1250;75312;-66
2023/09/12 02:31:11;;;;;;;19.80;8.70;;;;;;;16.62;100.00;99063.00;109619;1250;67846;-65
2023/09/12 02:33:38;;;;;;;11.80;6.90;;;;;;;16.61;100.00;99061.06;109644;1250;72505;-66
2023/09/12 02:36:06;;;;;;;14.60;7.90;;;;;;;16.59;100.00;99061.82;109497;1251;60076;-67
2023/09/12 02:38:32;;;;;;;11.20;7.80;;;;;;;16.57;100.00;99059.40;109644;1250;59649;-65
2023/09/12 02:40:59;;;;;;;11.80;8.10;;;;;;;16.56;100.00;99059.90;109595;1252;75460;-68
2023/09/12 02:43:25;;;;;;;11.30;7.20;;;;;;;16.55;100.00;99061.86;109544;1249;66425;-66
2023/09/12 02:45:52;;;;;;;15.50;8.10;;;;;;;16.52;100.00;99063.50;109642;1251;72303;-66
2023/09/12 02:48:18;;;;;;;15.90;7.70;;;;;;;16.49;100.00;99061.23;109482;1251;59968;-68
2023/09/12 02:50:45;;;;;;;13.60;7.60;;;;;;;16.49;100.00;99062.23;109560;1250;60224;-68
2023/09/12 02:53:12;;;;;;;16.40;7.30;;;;;;;16.47;100.00;99062.89;109635;1250;74434;-66
2023/09/12 02:55:42;;;;;;;14.60;7.90;;;;;;;16.45;100.00;99058.94;109721;1250;59755;-67
2023/09/12 02:58:09;;;;;;;9.90;7.20;;;;;;;16.42;100.00;99057.52;109698;1250;72563;-65
2023/09/12 03:00:42;;;;;;;10.60;7.40;;;;;;;16.41;100.00;99059.73;109491;1250;60337;-67
2023/09/12 03:03:09;;;;;;;10.50;6.80;;;;;;;16.40;100.00;99059.44;109585;1250;59674;-67
2023/09/12 03:05:36;;;;;;;11.90;7.10;;;;;;;16.39;100.00;99058.27;109578;1250;74272;-68
2023/09/12 03:08:03;;;;;;;13.20;6.50;;;;;;;16.39;100.00;99056.79;109584;1250;66536;-67
2023/09/12 03:10:30;;;;;;;11.80;7.40;;;;;;;16.40;100.00;99058.90;109571;1250;71238;-67
2023/09/12 03:12:57;;;;;;;13.70;7.30;;;;;;;16.41;100.00;99055.70;109527;1250;60188;-68
2023/09/12 03:15:23;;;;;;;10.90;6.90;;;;;;;16.41;100.00;99053.00;109617;1250;59792;-67
2023/09/12 03:17:50;;;;;;;10.10;7.20;;;;;;;16.41;100.00;99052.52;109494;1251;75166;-68
2023/09/12 03:20:17;;;;;;;15.40;7.80;;;;;;;16.41;100.00;99056.40;109577;1251;66454;-68
2023/09/12 03:22:45;;;;;;;12.20;7.90;;;;;;;16.41;100.00;99057.96;109606;1251;72545;-66
2023/09/12 03:25:12;;;;;;;10.20;6.90;;;;;;;16.42;100.00;99058.24;109461;1252;59771;-67
2023/09/12 03:27:38;;;;;;;16.70;7.20;;;;;;;16.42;100.00;99055.73;109625;1250;60112;-68
2023/09/12 03:30:06;;;;;;;13.70;6.90;;;;;;;16.42;100.00;99056.59;109636;1250;74192;-67
2023/09/12 03:32:32;;;;;;;18.50;7.40;;;;;;;16.41;100.00;99056.92;109649;1250;66765;-69
2023/09/12 03:34:59;;;;;;;12.00;6.70;;;;;;;16.40;100.00;99059.44;109624;1250;72346;-65
2023/09/12 03:37:28;;;;;;;9.00;7.30;;;;;;;16.39;100.00;99062.95;109554;1250;59814;-67
2023/09/12 03:39:55;;;;;;;7.20;6.20;;;;;;;16.38;100.00;99066.23;109668;1250;60170;-66
2023/09/12 03:42:21;;;;;;;8.80;6.60;;;;;;;16.37;100.00;99071.09;109544;1250;75226;-69
2023/09/12 03:44:48;;;;;;;11.10;7.10;;;;;;;16.36;100.00;99070.30;109723;1250;66494;-69
2023/09/12 03:47:14;;;;;;;9.60;6.70;;;;;;;16.34;100.00;99074.20;109598;1250;71358;-69
2023/09/12 03:49:41;;;;;;;15.40;8.00;;;;;;;16.31;100.00;99071.98;109634;1250;59747;-70
2023/09/12 03:52:07;;;;;;;10.30;6.60;;;;;;;16.27;100.00;99074.17;109634;1250;59865;-67
2023/09/12 03:54:34;;;;;;;12.10;7.40;;;;;;;16.20;100.00;99073.80;109670;1250;74061;-68
2023/09/12 03:57:00;;;;;;;11.90;6.90;;;;;;;16.12;100.00;99068.06;109543;1250;67644;-67
2023/09/12 03:59:27;;;;;;;13.40;7.30;;;;;;;16.07;100.00;99066.44;109506;1250;73179;-67
2023/09/12 04:01:54;;;;;;;12.30;6.40;;;;;;;16.03;100.00;99065.30;109610;1250;60114;-72
2023/09/12 04:04:21;;;;;;;9.80;6.80;;;;;;;16.00;100.00;99065.65;109459;1251;60150;-68
2023/09/12 04:06:48;;;;;;;12.70;7.10;;;;;;;15.96;100.00;99060.80;109635;1251;75541;-69
2023/09/12 04:09:14;;;;;;;10.10;7.30;;;;;;;15.94;100.00;99059.38;109497;1251;68754;-69
2023/09/12 04:11:41;;;;;;;8.70;6.70;;;;;;;15.92;100.00;99060.84;109534;1251;72441;-69
2023/09/12 04:14:14;;;;;;;9.80;6.90;;;;;;;15.93;100.00;99061.02;109394;1253;60096;-68
2023/09/12 04:16:40;;;;;;;10.30;6.90;;;;;;;15.97;100.00;99064.02;109493;1250;60208;-71
2023/09/12 04:19:07;;;;;;;14.00;7.60;;;;;;;16.06;100.00;99065.00;109587;1251;75216;-70
2023/09/12 04:21:34;;;;;;;15.80;7.10;;;;;;;16.17;100.00;99068.44;109658;1251;65769;-69
2023/09/12 04:24:00;;;;;;;9.50;7.10;;;;;;;16.32;100.00;99068.19;109631;1251;72466;-73
2023/09/12 04:26:27;;;;;;;9.70;7.10;;;;;;;16.50;100.00;99065.64;109532;1251;59673;-72
2023/09/12 04:28:54;;;;;;;16.20;6.80;;;;;;;16.69;100.00;99064.05;109544;1251;61249;-67
2023/09/12 04:31:20;;;;;;;16.80;7.00;;;;;;;16.89;100.00;99061.60;109669;1251;60183;-69
2023/09/12 04:33:47;;;;;;;8.90;6.50;;;;;;;17.13;100.00;99059.52;109534;1250;67608;-66
2023/09/12 04:36:13;;;;;;;14.30;7.60;;;;;;;17.38;100.00;99054.83;109654;1254;72875;-67
2023/09/12 04:38:40;;;;;;;12.10;7.20;;;;;;;17.63;100.00;99051.50;109556;1256;60118;-69
2023/09/12 04:41:07;;;;;;;14.00;6.20;;;;;;;17.91;100.00;99053.75;109510;1256;59685;-69
2023/09/12 04:43:34;;;;;;;12.40;6.20;;;;;;;18.21;100.00;99055.02;109592;1251;75474;-70
2023/09/12 04:46:01;;;;;;;10.10;6.50;;;;;;;18.49;100.00;99052.70;109558;1250;67855;-69
2023/09/12 04:48:28;;;;;;;8.00;6.60;;;;;;;18.78;100.00;99054.23;109541;1251;73082;-69
2023/09/12 04:50:55;;;;;;;13.50;6.90;;;;;;;19.07;100.00;99052.94;109533;1257;60360;-72
2023/09/12 04:53:21;;;;;;;10.50;5.90;;;;;;;19.35;100.00;99049.65;109677;1250;59699;-71
2023/09/12 04:55:48;;;;;;;8.40;5.50;;;;;;;19.68;100.00;99052.69;109577;1251;60420;-70
2023/09/12 04:58:15;;;;;;;12.10;7.20;;;;;;;20.03;100.00;99053.70;109545;1251;66847;-69
2023/09/12 05:00:42;;;;;;;11.30;6.20;;;;;;;20.37;100.00;99057.11;109652;1250;72936;-69
2023/09/12 05:03:08;;;;;;;16.00;6.50;;;;;;;20.71;100.00;99058.77;109496;1252;59870;-69
2023/09/12 05:05:36;;;;;;;9.80;6.40;;;;;;;21.03;99.93;99059.56;109546;1256;61147;-70
2023/09/12 05:08:03;;;;;;;10.50;6.80;;;;;;;21.32;98.07;99064.35;109612;1250;75297;-72
2023/09/12 05:10:31;;;;;;;9.10;6.00;;;;;;;21.57;97.06;99064.67;109490;1251;67728;-71
2023/09/12 05:12:57;;;;;;;12.30;6.60;;;;;;;21.83;94.28;99063.02;109388;1251;72804;-69
2023/09/12 05:15:24;;;;;;;8.20;5.70;;;;;;;22.11;91.29;99060.81;109424;1251;60015;-69
2023/09/12 05:17:50;;;;;;;9.70;6.60;;;;;;;22.41;89.05;99061.05;109261;1251;220069;-69
2023/09/12 05:20:17;;;;;;;12.60;7.50;;;;;;;22.65;86.67;99063.14;109459;1251;75538;-69
2023/09/12 05:22:44;;;;;;;11.40;7.70;;;;;;;22.91;85.77;99059.94;109542;1250;68000;-69
2023/09/12 05:25:10;;;;;;;10.30;7.00;;;;;;;23.12;83.83;99063.09;109578;1250;72733;-68
2023/09/12 05:27:37;;;;;;;12.60;7.40;;;;;;;23.33;80.91;99059.31;109513;1250;60228;-69
2023/09/12 05:30:04;;;;;;;10.00;7.10;;;;;;;23.54;78.95;99059.71;109446;1251;60071;-68
2023/09/12 05:32:31;;;;;;;11.70;7.00;;;;;;;23.75;76.87;99060.56;109429;1251;75221;-69
2023/09/12 05:34:58;;;;;;;6.80;6.00;;;;;;;23.91;74.76;99065.42;109444;1251;67602;-68
2023/09/12 05:37:44;;;;;;;7.90;6.10;;;;;;;24.06;72.12;99065.63;109369;1256;72395;-68
2023/09/12 05:40:11;;;;;;;6.30;5.60;;;;;;;24.14;71.28;99069.92;109482;1251;60032;-69
2023/09/12 05:42:38;;;;;;;6.30;4.70;;;;;;;24.23;68.77;99070.05;109549;1250;60164;-69
2023/09/12 05:45:06;;;;;;;10.50;5.40;;;;;;;24.28;67.01;99069.20;109518;1251;74548;-69
2023/09/12 05:47:33;;;;;;;13.60;6.10;;;;;;;24.32;65.85;99068.88;109525;1251;67035;-69
2023/09/12 05:50:00;;;;;;;8.10;5.30;;;;;;;24.41;65.13;99069.13;109673;1250;72435;-69
2023/09/12 05:52:27;;;;;;;11.60;4.70;;;;;;;24.51;64.48;99065.10;109595;1250;60219;-69
2023/09/12 05:54:54;;;;;;;7.00;5.30;;;;;;;24.67;64.11;99069.29;109691;1250;59775;-68
2023/09/12 05:57:21;;;;;;;8.70;5.00;;;;;;;24.84;62.77;99074.01;109593;1250;74375;-69
2023/09/12 05:59:47;;;;;;;9.70;5.60;;;;;;;25.05;61.52;99072.27;109642;1250;66947;-69
2023/09/12 06:02:14;;;;;;;8.80;4.90;;;;;;;25.25;60.95;99072.34;109532;1251;72679;-69
2023/09/12 06:04:40;;;;;;;8.30;6.30;;;;;;;25.50;60.43;99071.93;109642;1251;59734;-69
2023/09/12 06:07:07;;;;;;;8.70;5.90;;;;;;;25.73;60.20;99067.98;109673;1250;60029;-69
2023/09/12 06:09:33;;;;;;;11.90;5.60;;;;;;;25.94;58.76;99070.46;109653;1251;75871;-69
2023/09/12 06:12:00;;;;;;;10.90;4.90;;;;;;;26.16;57.04;99066.55;109718;1251;68344;-69
2023/09/12 06:14:27;;;;;;;9.70;5.40;;;;;;;26.37;56.08;99064.04;109648;1250;59790;-69
2023/09/12 06:16:53;;;;;;;8.60;4.80;;;;;;;26.58;54.53;99069.84;109623;1250;60266;-69
2023/09/12 06:19:20;;;;;;;11.20;5.10;;;;;;;26.85;53.06;99071.11;109599;1251;60521;-69
2023/09/12 06:21:47;;;;;;;10.10;5.50;;;;;;;27.11;52.10;99070.63;109705;1251;75711;-69
2023/09/12 06:24:15;;;;;;;6.60;4.60;;;;;;;27.32;50.84;99068.44;109695;1251;67702;-69
2023/09/12 06:26:42;;;;;;;9.20;5.10;;;;;;;27.41;49.56;99071.23;109659;1250;72473;-68
2023/09/12 06:29:09;;;;;;;7.00;4.40;;;;;;;27.49;49.77;99069.05;109546;1250;59874;-68
2023/09/12 06:31:35;;;;;;;6.70;4.70;;;;;;;27.66;49.54;99070.56;109666;1251;59759;-68
2023/09/12 06:34:02;;;;;;;6.60;5.30;;;;;;;27.89;50.12;99069.79;109708;1251;75436;-68
2023/09/12 06:36:29;;;;;;;7.90;5.00;;;;;;;28.23;49.24;99073.85;109682;1251;66565;-69
2023/09/12 06:38:56;;;;;;;13.80;5.80;;;;;;;28.50;48.05;99079.74;109620;1250;71365;-68
2023/09/12 06:41:23;;;;;;;8.40;5.00;;;;;;;28.70;46.15;99084.13;109633;1250;59751;-68
2023/09/12 06:43:49;;;;;;;12.30;4.60;;;;;;;28.80;43.92;99086.59;109662;1251;59757;-68
2023/09/12 06:46:18;;;;;;;8.50;4.60;;;;;;;28.87;43.10;99086.25;109627;1251;74319;-68
2023/09/12 06:48:45;;;;;;;7.60;4.80;;;;;;;28.96;42.32;99089.27;109679;1251;66637;-68
2023/09/12 06:51:12;;;;;;;5.70;4.10;;;;;;;29.05;42.32;99084.80;109459;1251;71469;-68
2023/09/12 06:53:44;;;;;;;10.10;4.50;;;;;;;29.22;41.12;99094.59;109640;1250;60278;-68
2023/09/12 06:56:11;;;;;;;9.60;4.40;;;;;;;29.32;40.75;99096.71;109700;1251;60401;-68
2023/09/12 06:58:37;;;;;;;11.60;4.70;;;;;;;29.37;40.69;99093.78;109647;1251;74110;-69
2023/09/12 07:01:07;;;;;;;7.50;3.90;;;;;;;29.46;40.82;99096.64;109669;1250;67849;-68
2023/09/12 07:03:34;;;;;;;6.20;3.90;;;;;;;29.47;40.39;99099.68;109628;1251;72486;-68
2023/09/12 07:06:02;;;;;;;9.20;4.20;;;;;;;29.48;40.61;99094.57;109620;1251;60536;-69
2023/09/12 07:08:31;;;;;;;8.60;4.30;;;;;;;29.74;41.23;99097.35;109701;1251;59919;-68
2023/09/12 07:11:05;;;;;;;5.00;4.10;;;;;;;30.09;40.76;99094.73;109657;1250;75651;-69
2023/09/12 07:13:32;;;;;;;10.30;4.30;;;;;;;30.44;39.84;99097.95;109659;1251;67797;-69
2023/09/12 07:15:59;;;;;;;10.50;5.00;;;;;;;30.60;39.19;99097.03;109629;1251;72549;-69
2023/09/12 07:18:25;;;;;;;6.10;4.50;;;;;;;30.76;38.68;99096.94;109575;1251;60122;-68
2023/09/12 07:21:02;;;;;;;7.00;5.00;;;;;;;30.87;38.27;99096.36;109680;1250;60164;-68
2023/09/12 07:23:29;;;;;;;6.20;4.20;;;;;;;30.88;37.73;99100.15;109628;1250;75523;-68
2023/09/12 07:25:59;;;;;;;11.80;4.60;;;;;;;30.75;37.84;99098.80;109652;1251;67928;-68
2023/09/12 07:28:26;;;;;;;8.70;5.30;;;;;;;30.71;38.53;99094.80;109691;1250;72760;-68
2023/09/12 07:30:56;;;;;;;9.80;5.10;;;;;;;30.81;38.80;99092.84;109565;1251;60614;-68
2023/09/12 07:33:23;;;;;;;8.10;5.10;;;;;;;31.01;38.39;99090.49;109461;1250;60331;-68
2023/09/12 07:35:51;;;;;;;10.00;4.60;;;;;;;31.17;38.75;99088.78;109593;1251;75123;-68
2023/09/12 07:38:19;;;;;;;11.80;5.10;;;;;;;31.38;38.41;99085.96;109665;1250;67895;-68
2023/09/12 07:40:46;;;;;;;11.30;5.20;;;;;;;31.52;38.04;99080.78;109590;1250;72466;-68
2023/09/12 07:43:12;;;;;;;11.70;5.40;;;;;;;31.70;38.00;99082.09;109565;1251;60345;-68
2023/09/12 07:45:39;;;;;;;6.80;4.60;;;;;;;31.95;37.76;99082.70;109664;1250;60126;-68
2023/09/12 07:48:11;;;;;;;7.40;4.40;;;;;;;32.20;37.61;99080.08;109641;1251;59753;-69
2023/09/12 07:50:38;;;;;;;9.90;4.50;;;;;;;32.43;36.88;99082.97;109662;1250;66572;-68
2023/09/12 07:53:05;;;;;;;8.70;4.30;;;;;;;32.62;36.37;99082.94;109561;1250;72444;-69
2023/09/12 07:55:37;;;;;;;10.70;4.30;;;;;;;32.72;35.64;99084.39;109697;1250;59848;-69
2023/09/12 07:58:04;;;;;;;9.10;4.70;;;;;;;32.73;35.68;99079.23;109663;1250;60554;-69
2023/09/12 08:00:30;;;;;;;10.40;5.00;;;;;;;32.75;35.70;99081.73;109678;1251;75814;-69
2023/09/12 08:02:57;;;;;;;8.60;5.20;;;;;;;32.81;35.79;99083.16;109729;1250;67880;-69
2023/09/12 08:05:24;;;;;;;8.80;4.60;;;;;;;32.87;35.35;99083.67;109605;1250;71421;-70
2023/09/12 08:07:50;;;;;;;6.20;4.60;;;;;;;32.80;34.92;99082.02;109623;1251;60134;-69
2023/09/12 08:10:17;;;;;;;11.00;4.90;;;;;;;32.77;35.30;99077.22;109711;1250;60075;-69
2023/09/12 08:12:43;;;;;;;9.20;4.40;;;;;;;32.84;35.27;99082.82;109657;1250;74105;-69
2023/09/12 08:15:10;;;;;;;17.80;5.20;;;;;;;33.01;34.62;99077.25;109655;1250;66522;-70
2023/09/12 08:17:38;;;;;;;9.70;4.20;;;;;;;33.10;34.67;99079.65;109658;1250;72466;-69
2023/09/12 08:20:06;;;;;;;6.40;4.10;;;;;;;33.13;34.50;99079.02;109614;1250;59909;-70
2023/09/12 08:22:33;;;;;;;7.20;3.50;;;;;;;33.24;33.99;99075.80;109632;1250;60120;-70
2023/09/12 08:24:59;;;;;;;9.00;4.20;;;;;;;33.36;33.78;99080.58;109609;1250;75416;-69
2023/09/12 08:27:26;;;;;;;6.60;3.90;;;;;;;33.51;33.96;99079.33;109689;1250;59816;-69
2023/09/12 08:29:53;;;;;;;5.40;3.50;;;;;;;33.72;33.62;99074.14;109631;1250;71801;-69
2023/09/12 08:32:20;;;;;;;4.10;3.60;;;;;;;33.98;32.59;99078.73;109570;1250;59800;-69
2023/09/12 08:34:46;;;;;;;6.10;3.40;;;;;;;34.09;31.66;99079.25;109658;1250;60031;-69
2023/09/12 08:37:13;;;;;;;6.10;3.80;;;;;;;34.04;31.21;99081.77;109734;1250;75226;-69
2023/09/12 08:39:43;;;;;;;5.90;3.40;;;;;;;33.93;31.34;99079.80;109732;1250;67688;-70
2023/09/12 08:42:12;;;;;;;4.90;3.00;;;;;;;33.88;31.34;99081.69;109629;1250;72394;-68
2023/09/12 08:44:41;;;;;;;4.00;3.30;;;;;;;33.92;30.72;99088.84;109643;1250;60345;-69
2023/09/12 08:47:11;;;;;;;7.00;3.10;;;;;;;33.77;30.57;99083.42;109543;1250;59705;-69
2023/09/12 08:49:37;;;;;;;6.80;3.20;;;;;;;33.54;30.89;99080.40;109683;1251;75522;-69
2023/09/12 08:52:05;;;;;;;4.60;3.20;;;;;;;33.50;31.53;99078.09;109662;1250;67732;-70
2023/09/12 08:54:34;;;;;;;8.20;3.20;;;;;;;33.67;31.52;99079.77;109661;1250;72628;-69
2023/09/12 08:57:04;;;;;;;7.40;3.70;;;;;;;33.85;31.29;99082.87;109685;1250;60070;-70
2023/09/12 08:59:32;;;;;;;7.30;3.40;;;;;;;33.91;31.13;99080.75;109566;1250;60408;-69
2023/09/12 09:01:59;;;;;;;6.70;3.60;;;;;;;34.06;30.65;99083.06;109618;1250;75327;-69
2023/09/12 09:04:29;;;;;;;5.60;3.40;;;;;;;34.15;30.03;99087.42;109585;1250;67819;-69
2023/09/12 09:06:57;;;;;;;5.70;3.10;;;;;;;34.05;29.86;99084.17;109585;1250;72638;-69
2023/09/12 09:09:25;;;;;;;7.10;3.10;;;;;;;33.92;30.28;99083.16;109516;1250;60088;-68
2023/09/12 09:11:52;;;;;;;5.30;3.30;;;;;;;33.96;30.14;99082.48;109555;1250;60576;-69
2023/09/12 09:14:18;;;;;;;4.60;3.40;;;;;;;33.97;30.31;99079.58;109655;1250;74350;-69
2023/09/12 09:16:45;;;;;;;5.70;3.20;;;;;;;34.00;30.68;99081.84;109647;1250;66353;-70
2023/09/12 09:19:11;;;;;;;5.10;3.10;;;;;;;34.08;29.86;99082.17;109601;1250;71361;-70
2023/09/12 09:21:40;;;;;;;6.00;4.10;;;;;;;33.78;29.47;99090.79;109576;1250;59791;-67
2023/09/12 09:24:08;;;;;;;3.70;3.30;;;;;;;33.46;29.86;99089.88;109694;1250;59813;-69
2023/09/12 09:26:50;;;;;;;5.90;3.50;;;;;;;33.18;30.08;99080.62;109648;1250;76484;-66
2023/09/12 09:29:18;;;;;;;3.90;3.10;;;;;;;32.72;30.52;99075.35;109623;1250;66789;-68
2023/09/12 09:31:47;;;;;;;5.60;3.40;;;;;;;32.46;31.31;99077.90;109619;1250;71496;-68
2023/09/12 09:34:17;;;;;;;7.80;2.80;;;;;;;32.50;31.27;99073.63;109546;1250;60300;-68
2023/09/12 09:36:48;;;;;;;7.20;2.80;;;;;;;32.73;31.07;99079.78;109614;1250;60037;-69
2023/09/12 09:39:16;;;;;;;4.80;2.70;;;;;;;32.83;29.51;99075.31;109632;1250;75300;-73
2023/09/12 09:41:47;;;;;;;5.80;3.10;;;;;;;32.69;29.98;99068.01;109581;1250;67837;-67
2023/09/12 09:44:13;;;;;;;4.60;3.00;;;;;;;32.77;30.30;99073.27;109654;1250;71159;-70
2023/09/12 09:46:43;;;;;;;7.30;2.90;;;;;;;32.80;29.69;99080.92;109526;1250;59842;-69
2023/09/12 09:49:10;;;;;;;3.40;2.50;;;;;;;32.68;29.19;99079.17;109633;1250;61663;-67
2023/09/12 09:51:44;;;;;;;3.70;2.50;;;;;;;32.47;28.96;99079.14;109652;1250;74079;-67
2023/09/12 09:54:14;;;;;;;4.50;2.70;;;;;;;32.21;29.12;99079.85;109642;1250;66720;-67
2023/09/12 09:56:52;;;;;;;3.20;2.40;;;;;;;31.93;29.22;99077.64;109625;1250;71481;-67
2023/09/12 09:59:24;;;;;;;4.00;2.90;;;;;;;31.79;29.64;99072.92;109585;1250;60044;-67
2023/09/12 10:01:59;;;;;;;4.20;3.00;;;;;;;31.73;29.76;99074.72;109634;1250;59626;-67
2023/09/12 10:04:27;;;;;;;4.10;2.80;;;;;;;31.78;30.23;99073.35;109596;1250;74726;-67
2023/09/12 10:06:55;;;;;;;4.30;2.50;;;;;;;31.89;30.07;99071.16;109701;1250;66677;-67
2023/09/12 10:09:23;;;;;;;5.60;3.20;;;;;;;31.88;30.60;99074.10;109565;1250;72578;-67
2023/09/12 10:11:50;;;;;;;4.50;2.80;;;;;;;31.85;30.60;99070.63;109470;1250;59882;-66
2023/09/12 10:14:19;;;;;;;6.90;3.30;;;;;;;31.73;31.04;99070.94;109481;1251;60062;-67
2023/09/12 10:16:51;;;;;;;5.50;3.00;;;;;;;31.41;31.38;99078.48;109673;1250;74027;-67
2023/09/12 10:19:43;;;;;;;3.60;2.60;;;;;;;31.14;31.81;99082.11;109517;1250;66695;-67
2023/09/12 10:22:16;;;;;;;7.80;3.30;;;;;;;30.95;32.28;99074.84;109585;1250;71204;-67
2023/09/12 10:24:43;;;;;;;3.90;2.70;;;;;;;30.80;32.70;99067.12;109580;1250;59761;-67
2023/09/12 10:27:11;;;;;;;3.20;2.40;;;;;;;30.77;33.00;99077.95;109694;1250;60291;-67
2023/09/12 10:29:37;;;;;;;6.80;3.20;;;;;;;30.63;33.02;99074.39;109566;1250;75291;-67
2023/09/12 10:32:04;;;;;;;4.30;2.90;;;;;;;30.31;33.33;99077.59;109642;1250;66698;-67
2023/09/12 10:34:34;;;;;;;7.90;2.70;;;;;;;30.09;33.70;99071.11;109646;1250;72152;-67
2023/09/12 10:37:01;;;;;;;8.50;3.00;;;;;;;29.96;33.92;99077.64;109566;1250;59759;-67
2023/09/12 10:39:28;;;;;;;4.20;3.00;;;;;;;29.82;34.23;99077.27;109483;1250;60328;-67
2023/09/12 10:41:55;;;;;;;4.80;3.00;;;;;;;29.75;34.61;99068.94;109477;1250;73977;-67
2023/09/12 10:44:22;;;;;;;6.80;2.80;;;;;;;29.82;35.28;99065.70;109642;1250;67776;-68
2023/09/12 10:46:49;;;;;;;6.70;2.70;;;;;;;29.93;35.36;99068.14;109447;1250;72501;-66
2023/09/12 10:49:18;;;;;;;3.20;2.90;;;;;;;30.01;35.44;99062.95;109632;1250;60419;-67
2023/09/12 10:51:46;;;;;;;11.20;3.50;;;;;;;30.01;35.53;99064.48;109458;1250;60185;-67
2023/09/12 10:54:14;;;;;;;8.60;3.20;;;;;;;30.04;35.45;99060.73;109634;1250;75835;-67
2023/09/12 10:56:41;;;;;;;6.80;3.40;;;;;;;30.13;35.62;99058.45;109703;1250;68017;-69
2023/09/12 10:59:14;;;;;;;4.40;3.20;;;;;;;30.23;35.39;99055.55;109631;1250;73741;-67
2023/09/12 11:01:48;;;;;;;6.50;3.30;;;;;;;30.33;35.39;99049.89;109626;1250;59786;-67
2023/09/12 11:04:23;;;;;;;7.60;4.00;;;;;;;30.39;35.45;99047.84;109524;1250;60343;-68
2023/09/12 11:06:50;;;;;;;6.10;3.60;;;;;;;30.38;35.20;99044.25;109654;1250;74209;-67
2023/09/12 11:09:23;;;;;;;4.40;3.40;;;;;;;30.32;35.43;99047.88;109660;1250;66814;-67
2023/09/12 11:12:04;;;;;;;4.00;3.50;;;;;;;30.30;35.55;99042.42;109680;1250;72357;-67
2023/09/12 11:14:32;;;;;;;5.60;3.80;;;;;;;30.28;35.73;99040.83;109568;1250;61366;-67
2023/09/12 11:17:07;;;;;;;11.50;4.00;;;;;;;30.22;35.71;99044.86;109530;1250;60258;-67
2023/09/12 11:19:44;;;;;;;6.80;3.60;;;;;;;30.10;35.81;99047.44;109658;1250;75653;-68